Time;durP1;ratioP1;P1;durP2;ratioP2;P2;SDS_P1;SDS_P2;PMS_P1;PMS_P2;Temp;Humidity;BMP_temperature;BMP_pressure;BME280_temperature;BME280_humidity;BME280_pressure;Samples;Min_cycle;Max_cycle;Signal;HPM_P1;HPM_P2
2021/04/01 00:01:49;;;;;;;56.88;31.70;;;;;;;12.35;100.00;101912.88;5038329;28;20049;-62
2021/04/01 00:04:15;;;;;;;63.20;33.70;;;;;;;12.34;100.00;101912.03;5037598;28;20048;-61
2021/04/01 00:06:41;;;;;;;65.60;32.35;;;;;;;12.35;100.00;101907.47;5038427;28;20049;-61
2021/04/01 00:09:07;;;;;;;68.72;33.20;;;;;;;12.31;100.00;101900.59;5038426;28;20099;-62
2021/04/01 00:11:34;;;;;;;71.43;35.30;;;;;;;12.34;100.00;101900.38;5037721;28;20452;-62
2021/04/01 00:14:03;;;;;;;68.90;34.17;;;;;;;12.47;100.00;101911.03;5038638;28;20057;-61
2021/04/01 00:16:29;;;;;;;62.17;33.05;;;;;;;12.44;100.00;101898.66;5038214;28;20132;-61
2021/04/01 00:18:56;;;;;;;72.57;34.75;;;;;;;12.51;100.00;101896.31;5037668;28;20178;-61
2021/04/01 00:21:22;;;;;;;64.80;32.67;;;;;;;12.56;100.00;101888.72;5036104;28;20053;-62
2021/04/01 00:23:48;;;;;;;66.95;34.72;;;;;;;12.58;100.00;101878.63;5038117;28;20049;-61
2021/04/01 00:26:14;;;;;;;70.47;32.85;;;;;;;12.57;100.00;101880.50;5038410;28;20037;-62
2021/04/01 00:28:40;;;;;;;66.03;33.10;;;;;;;12.54;100.00;101872.59;5068408;22;20444;-61
2021/04/01 00:31:06;;;;;;;63.65;34.45;;;;;;;12.54;100.00;101880.69;5036558;28;20060;-62
2021/04/01 00:33:32;;;;;;;67.75;33.00;;;;;;;12.54;100.00;101880.69;5038765;28;20127;-61
2021/04/01 00:35:58;;;;;;;59.80;32.45;;;;;;;12.46;100.00;101877.78;5038405;28;20107;-61
2021/04/01 00:38:24;;;;;;;69.75;33.47;;;;;;;12.56;100.00;101878.75;5038303;28;20053;-62
2021/04/01 00:40:50;;;;;;;75.50;35.72;;;;;;;12.58;100.00;101876.78;5037711;28;20072;-61
2021/04/01 00:43:16;;;;;;;72.43;32.30;;;;;;;12.69;100.00;101885.84;5038992;28;20064;-62
2021/04/01 00:45:42;;;;;;;68.93;33.25;;;;;;;12.71;100.00;101908.22;5039704;28;20049;-62
2021/04/01 00:48:09;;;;;;;65.68;33.55;;;;;;;12.65;100.00;101909.56;5036998;28;20053;-61
2021/04/01 00:50:35;;;;;;;66.28;32.67;;;;;;;12.69;100.00;101888.56;5034179;28;20049;-61
2021/04/01 00:53:02;;;;;;;60.00;31.33;;;;;;;12.59;100.00;101889.31;5027537;28;20448;-61
2021/04/01 00:55:28;;;;;;;72.35;33.15;;;;;;;12.59;100.00;101888.47;5037673;28;20115;-61
2021/04/01 00:57:58;;;;;;;70.43;34.00;;;;;;;12.51;100.00;101877.41;5040470;28;20060;-61
2021/04/01 01:00:26;;;;;;;75.88;35.13;;;;;;;12.37;100.00;101883.94;5039712;28;20448;-61
2021/04/01 01:02:52;;;;;;;64.90;33.38;;;;;;;12.47;100.00;101889.44;5040197;28;20061;-62
2021/04/01 01:05:20;;;;;;;65.78;32.90;;;;;;;12.51;100.00;101880.09;5041129;28;20049;-61
2021/04/01 01:07:46;;;;;;;68.95;34.33;;;;;;;12.51;100.00;101872.84;5041086;28;20045;-61
2021/04/01 01:10:16;;;;;;;63.22;32.22;;;;;;;12.40;100.00;101862.94;5039855;28;20059;-61
2021/04/01 01:12:42;;;;;;;64.47;33.28;;;;;;;12.47;100.00;101863.31;5040364;28;20049;-61
2021/04/01 01:15:09;;;;;;;64.25;33.88;;;;;;;12.29;100.00;101859.38;5041258;28;20067;-62
2021/04/01 01:17:36;;;;;;;64.10;33.25;;;;;;;12.36;100.00;101863.31;5041179;28;20041;-62
2021/04/01 01:20:05;;;;;;;74.90;34.25;;;;;;;12.46;100.00;101866.97;5039902;28;20136;-62
2021/04/01 01:22:32;;;;;;;65.43;32.90;;;;;;;12.46;100.00;101860.75;5041957;28;20045;-62
2021/04/01 01:24:59;;;;;;;69.85;34.85;;;;;;;12.47;100.00;101859.72;5040572;28;20057;-61
2021/04/01 01:27:25;;;;;;;65.32;33.13;;;;;;;12.47;100.00;101867.84;5031643;28;20054;-62
2021/04/01 01:29:52;;;;;;;64.85;32.33;;;;;;;12.47;100.00;101876.81;5039112;28;20136;-62
2021/04/01 01:32:19;;;;;;;74.25;34.75;;;;;;;12.50;100.00;101886.47;5039125;28;20087;-62
2021/04/01 01:34:46;;;;;;;65.75;33.40;;;;;;;12.64;100.00;101907.00;5040433;28;20049;-61
2021/04/01 01:37:13;;;;;;;76.20;35.97;;;;;;;12.68;100.00;101913.88;5040515;28;20037;-61
2021/04/01 01:39:39;;;;;;;70.45;34.40;;;;;;;12.67;100.00;101913.00;5041428;28;20044;-62
2021/04/01 01:42:07;;;;;;;75.93;35.42;;;;;;;12.75;100.00;101923.16;5040165;28;20136;-61
2021/04/01 01:44:33;;;;;;;79.00;35.33;;;;;;;12.69;100.00;101913.75;5040579;28;20062;-61
2021/04/01 01:47:00;;;;;;;72.35;36.50;;;;;;;12.75;100.00;101905.13;5041082;28;20053;-62
2021/04/01 01:49:26;;;;;;;74.22;36.17;;;;;;;12.71;100.00;101902.81;5039791;28;20051;-62
2021/04/01 01:51:52;;;;;;;77.00;37.58;;;;;;;12.66;100.00;101907.72;5032796;28;20060;-62
2021/04/01 01:54:19;;;;;;;78.00;36.80;;;;;;;12.75;100.00;101918.66;5040117;28;20532;-61
2021/04/01 01:56:45;;;;;;;74.15;36.78;;;;;;;12.69;100.00;101910.16;5040465;28;20098;-61
2021/04/01 01:59:12;;;;;;;75.93;37.30;;;;;;;12.69;100.00;101915.56;5038674;28;20053;-61
2021/04/01 02:01:38;;;;;;;73.57;35.47;;;;;;;12.76;100.00;101922.19;5038894;28;20099;-62
2021/04/01 02:04:05;;;;;;;75.00;36.17;;;;;;;12.75;100.00;101917.75;5035482;28;20053;-62
2021/04/01 02:06:31;;;;;;;72.63;35.22;;;;;;;12.73;100.00;101923.28;5038112;28;20060;-62
2021/04/01 02:08:58;;;;;;;68.28;34.20;;;;;;;12.67;100.00;101917.53;5040271;28;20050;-61
2021/04/01 02:11:24;;;;;;;65.38;33.55;;;;;;;12.70;100.00;101923.53;5038278;28;20461;-62
2021/04/01 02:13:50;;;;;;;79.70;34.80;;;;;;;12.58;100.00;101909.19;5031880;28;20054;-61
2021/04/01 02:18:58;;;;;;;80.05;36.95;;;;;;;12.63;100.00;101911.50;5066875;23;20056;-62
2021/04/01 02:21:24;;;;;;;71.85;35.22;;;;;;;12.42;100.00;101914.09;5058489;28;20060;-61
2021/04/01 02:23:50;;;;;;;69.05;34.80;;;;;;;12.42;100.00;101914.09;5061123;28;20048;-63
2021/04/01 02:26:16;;;;;;;73.57;36.47;;;;;;;12.36;100.00;101912.75;5060127;28;20148;-63
2021/04/01 02:28:42;;;;;;;73.32;35.03;;;;;;;12.15;100.00;101919.88;5060699;28;20040;-63
2021/04/01 02:31:09;;;;;;;65.97;33.72;;;;;;;12.22;100.00;101915.69;5058707;28;20091;-63
2021/04/01 02:33:38;;;;;;;73.35;34.38;;;;;;;12.20;100.00;101917.66;5060110;28;20051;-63
2021/04/01 02:36:06;;;;;;;73.50;36.75;;;;;;;12.09;100.00;101918.50;5059211;28;20048;-63
2021/04/01 02:38:33;;;;;;;76.57;36.13;;;;;;;11.94;100.00;101925.94;5060747;28;20044;-62
2021/04/01 02:40:59;;;;;;;74.68;36.20;;;;;;;11.77;100.00;101915.56;5060056;28;20435;-62
2021/04/01 02:43:30;;;;;;;69.82;35.10;;;;;;;11.71;100.00;101914.19;5058156;28;20052;-63
2021/04/01 02:45:56;;;;;;;74.88;34.63;;;;;;;11.47;100.00;101919.59;5060665;28;20045;-63
2021/04/01 02:48:22;;;;;;;75.85;35.47;;;;;;;11.36;100.00;101904.25;5059646;28;20057;-63
2021/04/01 02:50:48;;;;;;;75.32;35.85;;;;;;;11.26;100.00;101893.28;5059632;28;20060;-60
2021/04/01 02:53:15;;;;;;;74.85;36.70;;;;;;;11.33;100.00;101899.09;5060409;28;20060;-62
2021/04/01 02:55:41;;;;;;;73.25;35.30;;;;;;;11.05;100.00;101898.47;5059450;28;20070;-60
2021/04/01 02:58:07;;;;;;;77.82;35.92;;;;;;;10.93;100.00;101902.06;5058314;28;20131;-62
2021/04/01 03:00:35;;;;;;;84.25;36.63;;;;;;;10.67;100.00;101896.75;5060764;28;20045;-62
2021/04/01 03:03:04;;;;;;;84.35;38.25;;;;;;;10.55;100.00;101886.88;5058989;28;20052;-62
2021/04/01 03:05:30;;;;;;;85.28;38.13;;;;;;;10.50;100.00;101890.75;5059890;28;20142;-61
2021/04/01 03:07:56;;;;;;;80.07;37.30;;;;;;;10.34;100.00;101890.97;5059514;28;20056;-62
2021/04/01 03:10:23;;;;;;;79.88;36.95;;;;;;;10.35;100.00;101889.16;5059438;28;20106;-62
2021/04/01 03:12:49;;;;;;;81.22;35.03;;;;;;;10.42;100.00;101887.72;5059591;28;20082;-62
2021/04/01 03:15:15;;;;;;;73.38;34.67;;;;;;;10.41;100.00;101896.78;5056169;28;20060;-61
2021/04/01 03:17:42;;;;;;;74.72;35.33;;;;;;;10.54;100.00;101904.88;5058498;28;20045;-61
2021/04/01 03:20:10;;;;;;;80.57;35.60;;;;;;;10.49;100.00;101905.16;5059516;28;20052;-61
2021/04/01 03:22:36;;;;;;;72.43;35.20;;;;;;;10.50;100.00;101906.91;5058246;28;20055;-61
2021/04/01 03:25:03;;;;;;;78.63;35.33;;;;;;;10.49;100.00;101907.84;5059581;28;20497;-61
2021/04/01 03:27:30;;;;;;;70.88;34.28;;;;;;;10.36;100.00;101912.41;5057942;28;20059;-61
2021/04/01 03:30:06;;;;;;;70.07;32.70;;;;;;;10.20;100.00;101911.72;5059376;28;20048;-62
2021/04/01 03:32:33;;;;;;;70.25;34.38;;;;;;;10.13;100.00;101896.03;5048401;28;20048;-61
2021/04/01 03:34:59;;;;;;;79.13;34.85;;;;;;;10.12;100.00;101898.81;5058795;28;20562;-61
2021/04/01 03:37:25;;;;;;;70.55;34.00;;;;;;;9.85;100.00;101898.91;5059196;28;20048;-61
2021/04/01 03:39:51;;;;;;;70.97;32.30;;;;;;;9.78;100.00;101893.94;5058340;28;20144;-61
2021/04/01 03:42:18;;;;;;;72.55;34.88;;;;;;;9.85;100.00;101893.53;5057504;28;20063;-61
2021/04/01 03:44:45;;;;;;;77.75;34.67;;;;;;;9.81;100.00;101904.50;5059591;28;20049;-62
2021/04/01 03:47:11;;;;;;;77.55;35.97;;;;;;;9.75;100.00;101899.53;5058089;28;20072;-62
2021/04/01 03:49:37;;;;;;;71.28;33.63;;;;;;;9.71;100.00;101911.47;5059872;28;20405;-62
2021/04/01 03:52:03;;;;;;;81.43;35.05;;;;;;;9.65;100.00;101915.44;5058550;28;20052;-61
2021/04/01 03:54:29;;;;;;;84.45;36.65;;;;;;;9.64;100.00;101920.91;5057835;28;20048;-61
2021/04/01 03:56:55;;;;;;;85.05;38.10;;;;;;;9.65;100.00;101930.72;5051781;28;20060;-61
2021/04/01 03:59:24;;;;;;;86.63;38.42;;;;;;;9.70;100.00;101939.34;5037978;28;20052;-61
2021/04/01 04:04:53;;;;;;;89.35;39.53;;;;;;;9.67;100.00;101934.13;5046662;28;20082;-61
2021/04/01 04:07:37;;;;;;;85.55;38.90;;;;;;;9.63;100.00;101916.53;5049817;28;20053;-62
2021/04/01 04:13:10;;;;;;;94.43;40.90;;;;;;;9.32;100.00;101929.31;5022971;28;20412;-62
2021/04/01 04:15:36;;;;;;;107.95;42.70;;;;;;;9.28;100.00;101933.19;5055245;28;20040;-61
2021/04/01 04:18:03;;;;;;;93.25;41.92;;;;;;;9.22;100.00;101923.69;5057734;28;20056;-61
2021/04/01 04:20:29;;;;;;;107.60;42.85;;;;;;;9.12;100.00;101920.72;5058073;28;20052;-61
2021/04/01 04:22:55;;;;;;;101.55;39.95;;;;;;;9.05;100.00;101911.34;5058436;28;20053;-61
2021/04/01 04:25:22;;;;;;;94.38;39.92;;;;;;;9.00;100.00;101932.28;5058185;28;20056;-62
2021/04/01 04:30:32;;;;;;;94.45;41.20;;;;;;;8.98;100.00;101919.91;5061869;28;20167;-61
2021/04/01 04:32:58;;;;;;;93.88;39.90;;;;;;;8.98;100.00;101919.91;5062047;28;20045;-62
2021/04/01 04:35:25;;;;;;;94.95;41.05;;;;;;;8.92;100.00;101915.81;5060266;28;20095;-62
2021/04/01 04:37:51;;;;;;;87.53;39.63;;;;;;;8.96;100.00;101916.47;5061803;28;20064;-62
2021/04/01 04:40:17;;;;;;;93.88;41.28;;;;;;;9.04;100.00;101925.75;5062157;28;20053;-61
2021/04/01 04:42:43;;;;;;;94.60;41.85;;;;;;;9.11;100.00;101945.00;5061623;28;20059;-62
2021/04/01 04:45:10;;;;;;;99.80;42.95;;;;;;;9.14;100.00;101938.59;5061787;28;20070;-61
2021/04/01 04:47:36;;;;;;;92.65;40.25;;;;;;;9.24;100.00;101937.00;5063422;28;20132;-61
2021/04/01 04:50:04;;;;;;;92.53;39.58;;;;;;;9.19;100.00;101928.41;5061546;28;20060;-61
2021/04/01 04:52:32;;;;;;;98.90;41.30;;;;;;;9.00;100.00;101937.66;5062936;28;20497;-61
2021/04/01 04:55:01;;;;;;;105.35;43.13;;;;;;;9.11;100.00;101951.25;5061033;28;20053;-62
2021/04/01 04:57:32;;;;;;;108.65;45.05;;;;;;;9.24;100.00;101958.50;5062320;28;20053;-62
2021/04/01 05:05:24;;;;;;;120.13;49.17;;;;;;;9.49;100.00;101957.75;5061041;28;20136;-62
2021/04/01 05:07:50;;;;;;;129.02;47.53;;;;;;;9.50;100.00;101974.75;5062670;28;20052;-62
2021/04/01 05:10:16;;;;;;;119.28;46.53;;;;;;;9.51;100.00;101961.22;5059692;28;20056;-62
2021/04/01 05:12:43;;;;;;;120.57;47.28;;;;;;;9.52;100.00;101962.06;5061631;28;20064;-62
2021/04/01 05:15:10;;;;;;;122.20;47.25;;;;;;;9.56;100.00;101974.34;5061127;28;20052;-62
2021/04/01 05:17:36;;;;;;;113.68;47.78;;;;;;;9.52;100.00;101962.06;5060872;28;20048;-63
2021/04/01 05:20:05;;;;;;;117.78;48.15;;;;;;;9.59;100.00;101968.75;5061514;28;20071;-62
2021/04/01 05:22:37;;;;;;;;;;;;;;;9.58;100.00;101977.78;5061492;28;20079;-61
2021/04/01 05:25:06;;;;;;;127.20;52.42;;;;;;;9.56;100.00;101964.44;5061735;28;19970;-62
2021/04/01 05:27:36;;;;;;;122.88;50.95;;;;;;;9.67;100.00;101977.16;5061925;28;20051;-62
2021/04/01 05:30:02;;;;;;;140.10;56.03;;;;;;;9.58;100.00;101972.41;5060787;28;20051;-62
2021/04/01 05:32:30;;;;;;;121.32;51.22;;;;;;;9.61;100.00;101985.63;5060536;28;20102;-62
2021/04/01 05:34:56;;;;;;;134.82;54.95;;;;;;;9.68;100.00;102005.78;5060757;28;20060;-61
2021/04/01 05:37:25;;;;;;;131.25;56.70;;;;;;;9.63;100.00;102003.38;5060768;28;20084;-62
2021/04/01 05:39:52;;;;;;;135.98;53.70;;;;;;;9.62;100.00;102011.56;5060279;28;20398;-62
2021/04/01 05:42:21;;;;;;;135.18;57.97;;;;;;;9.67;100.00;102012.09;5060356;28;20059;-67
2021/04/01 05:44:48;;;;;;;129.82;54.80;;;;;;;9.71;100.00;102007.41;5061326;28;20074;-61
2021/04/01 05:47:18;;;;;;;136.60;58.28;;;;;;;9.68;100.00;102004.91;5059469;28;20143;-61
2021/04/01 05:49:58;;;;;;;138.40;61.25;;;;;;;9.69;100.00;102012.88;5060862;28;20048;-62
2021/04/01 05:53:06;;;;;;;132.05;57.83;;;;;;;9.81;100.00;102012.03;5060437;28;20288;-69
2021/04/01 05:58:54;;;;;;;140.45;60.88;;;;;;;9.64;100.00;102025.75;5045077;28;20052;-61
2021/04/01 06:01:39;;;;;;;139.40;58.25;;;;;;;9.77;100.00;102037.41;5060333;28;20106;-65
2021/04/01 06:04:10;;;;;;;134.65;59.05;;;;;;;9.88;100.00;102033.16;5061264;28;20053;-62
2021/04/01 06:06:42;;;;;;;128.25;56.65;;;;;;;9.82;100.00;102037.97;5059803;28;20048;-62
2021/04/01 06:09:18;;;;;;;126.32;58.17;;;;;;;9.88;100.00;102035.84;5050775;28;20048;-63
2021/04/01 06:11:50;;;;;;;129.18;59.15;;;;;;;9.98;100.00;102024.38;5059997;28;20052;-67
2021/04/01 06:14:26;;;;;;;131.07;59.85;;;;;;;9.93;100.00;102031.03;5059883;28;20088;-62
2021/04/01 06:16:56;;;;;;;134.48;62.00;;;;;;;9.87;100.00;102036.81;5059504;28;20451;-62
2021/04/01 06:19:32;;;;;;;139.27;61.63;;;;;;;9.92;100.00;102043.63;5060373;28;20531;-69
2021/04/01 06:22:03;;;;;;;117.80;59.30;;;;;;;10.05;100.00;102046.31;5059749;28;20052;-63
2021/04/01 06:24:30;;;;;;;122.50;56.17;;;;;;;10.23;100.00;102060.38;5059694;28;20044;-61
2021/04/01 06:27:01;;;;;;;141.80;63.97;;;;;;;10.17;100.00;102067.03;5058270;28;20052;-62
2021/04/01 06:29:31;;;;;;;127.93;60.58;;;;;;;10.21;100.00;102061.44;5059772;28;20045;-62
2021/04/01 06:32:01;;;;;;;132.18;61.45;;;;;;;10.30;100.00;102068.88;5059608;28;20056;-67
2021/04/01 06:34:33;;;;;;;122.32;59.78;;;;;;;10.21;100.00;102061.44;5059360;28;20056;-60
2021/04/01 06:36:59;;;;;;;128.88;62.08;;;;;;;10.28;100.00;102063.59;5059739;28;20056;-61
2021/04/01 06:39:25;;;;;;;133.70;63.35;;;;;;;10.22;100.00;102071.22;5058665;28;20489;-61
2021/04/01 06:42:05;;;;;;;124.55;59.78;;;;;;;10.21;100.00;102074.91;5057145;28;20048;-62
2021/04/01 06:44:39;;;;;;;132.15;59.70;;;;;;;10.31;100.00;102090.31;5053038;28;20401;-61
2021/04/01 06:47:10;;;;;;;140.02;63.00;;;;;;;10.09;100.00;102093.56;5058375;28;20044;-61
2021/04/01 06:49:59;;;;;;;118.60;59.47;;;;;;;10.09;100.00;102095.41;5061936;28;20136;-62
2021/04/01 06:52:31;;;;;;;135.02;62.67;;;;;;;10.02;100.00;102094.94;5047628;28;20160;-62
2021/04/01 06:55:04;;;;;;;138.00;63.72;;;;;;;9.95;100.00;102109.75;5046172;28;20459;-62
2021/04/01 06:57:43;;;;;;;134.80;64.15;;;;;;;9.98;100.00;102112.25;5059445;28;20441;-60
2021/04/01 07:00:18;;;;;;;136.30;64.78;;;;;;;9.77;100.00;102119.91;5058806;28;20067;-69
2021/04/01 07:02:49;;;;;;;123.30;60.88;;;;;;;9.90;100.00;102114.59;5058977;28;20052;-62
2021/04/01 07:05:27;;;;;;;135.05;63.85;;;;;;;9.95;100.00;102113.34;5059295;28;20102;-61
2021/04/01 07:07:57;;;;;;;124.45;63.40;;;;;;;10.03;100.00;102126.28;5059070;28;20064;-70
2021/04/01 07:10:39;;;;;;;133.63;67.45;;;;;;;9.91;100.00;102129.75;5057825;28;20045;-62
2021/04/01 07:13:10;;;;;;;123.25;63.10;;;;;;;9.97;100.00;102127.53;5058504;28;20083;-62
2021/04/01 07:15:44;;;;;;;126.03;60.58;;;;;;;9.97;100.00;102132.06;5059388;28;20398;-62
2021/04/01 07:18:26;;;;;;;136.98;66.90;;;;;;;9.77;100.00;102144.97;5058450;28;20061;-69
2021/04/01 07:34:57;;;;;;;124.78;62.25;;;;;;;9.90;100.00;102155.78;5024136;28;20163;-62
2021/04/01 07:46:19;;;;;;;104.45;51.92;;;;;;;10.06;100.00;102166.41;5059126;28;20055;-62
2021/04/01 07:48:48;;;;;;;90.78;48.50;;;;;;;10.21;100.00;102153.78;5053776;28;20485;-62
2021/04/01 07:51:30;;;;;;;92.75;47.53;;;;;;;10.26;100.00;102157.03;5059347;28;20071;-62
2021/04/01 07:53:56;;;;;;;88.90;44.65;;;;;;;10.22;100.00;102165.38;5059761;28;20052;-61
2021/04/01 07:56:28;;;;;;;71.85;40.28;;;;;;;10.24;100.00;102168.84;5048061;28;20486;-66
2021/04/01 07:59:02;;;;;;;62.92;33.00;;;;;;;10.16;100.00;102159.47;5040214;28;20541;-62
2021/04/01 08:01:50;;;;;;;61.30;31.88;;;;;;;10.23;100.00;102167.13;5042262;28;20442;-61
2021/04/01 08:04:18;;;;;;;54.33;26.35;;;;;;;10.30;100.00;102165.75;5058800;28;20053;-67
2021/04/01 08:06:44;;;;;;;52.35;26.98;;;;;;;10.11;100.00;102168.78;5051842;28;20045;-62
2021/04/01 08:09:13;;;;;;;48.70;24.73;;;;;;;10.20;100.00;102168.19;5038302;28;20456;-63
2021/04/01 08:11:43;;;;;;;47.00;25.25;;;;;;;10.34;100.00;102175.38;5038973;28;20501;-62
2021/04/01 08:14:14;;;;;;;45.40;21.95;;;;;;;10.57;100.00;102179.25;5037796;28;20069;-62
2021/04/01 08:16:48;;;;;;;35.83;19.80;;;;;;;10.59;100.00;102190.75;5037121;28;20046;-68
2021/04/01 08:19:16;;;;;;;35.55;19.23;;;;;;;10.77;100.00;102188.63;5036070;28;20107;-62
2021/04/01 08:21:46;;;;;;;34.53;18.95;;;;;;;10.77;100.00;102188.63;5036771;28;20057;-62
2021/04/01 08:24:18;;;;;;;31.40;17.05;;;;;;;10.82;100.00;102185.63;5037113;28;20590;-62
2021/04/01 08:26:57;;;;;;;26.10;13.40;;;;;;;11.11;100.00;102191.69;5038059;28;20045;-68
2021/04/01 08:32:31;;;;;;;18.92;9.90;;;;;;;11.07;100.00;102200.97;5037394;28;20048;-62
2021/04/01 08:35:01;;;;;;;19.42;8.50;;;;;;;11.12;100.00;102198.81;5035697;28;20496;-62
2021/04/01 08:37:32;;;;;;;16.52;8.40;;;;;;;11.27;100.00;102199.56;5031344;28;20048;-62
2021/04/01 08:40:00;;;;;;;17.35;6.78;;;;;;;11.28;100.00;102211.19;5038340;28;20452;-61
2021/04/01 08:42:55;;;;;;;14.00;4.50;;;;;;;11.34;100.00;102191.94;5037016;28;20148;-69
2021/04/01 08:45:38;;;;;;;13.75;3.83;;;;;;;11.20;100.00;102201.84;5037468;28;20095;-62
2021/04/01 08:48:24;;;;;;;9.18;3.60;;;;;;;11.47;100.00;102203.56;5038392;28;20087;-66
2021/04/01 08:51:04;;;;;;;12.35;3.75;;;;;;;11.18;100.00;102219.94;5030295;28;20446;-61
2021/04/01 08:53:38;;;;;;;;;;;;;;;11.18;100.00;102211.84;5046670;28;20140;-62
2021/04/01 08:56:18;;;;;;;11.73;3.03;;;;;;;11.47;100.00;102208.97;5057908;28;19928;-67
2021/04/01 08:58:54;;;;;;;12.98;3.22;;;;;;;11.56;100.00;102202.91;5058361;28;20056;-62
2021/04/01 09:01:21;;;;;;;13.73;2.85;;;;;;;11.67;100.00;102203.97;5059316;28;20497;-62
2021/04/01 09:03:48;;;;;;;12.20;3.58;;;;;;;11.74;100.00;102208.81;5060186;28;20041;-61
2021/04/01 09:06:19;;;;;;;10.15;2.85;;;;;;;11.82;97.93;102213.66;5059138;28;20048;-67
2021/04/01 09:08:50;;;;;;;11.95;3.20;;;;;;;12.04;95.67;102213.00;5053582;28;20383;-61
2021/04/01 09:11:18;;;;;;;12.13;2.90;;;;;;;12.15;96.82;102220.28;5037445;28;20545;-61
2021/04/01 09:13:54;;;;;;;13.07;2.88;;;;;;;12.21;93.10;102224.38;5040419;28;20049;-62
2021/04/01 09:16:25;;;;;;;10.55;2.72;;;;;;;12.41;93.71;102231.88;5041043;28;20097;-68
2021/04/01 09:18:51;;;;;;;15.27;3.65;;;;;;;12.37;91.45;102230.38;5036713;28;20131;-62
2021/04/01 09:21:18;;;;;;;9.55;2.60;;;;;;;12.30;92.89;102233.63;5040181;28;20073;-62
2021/04/01 09:23:47;;;;;;;12.57;2.97;;;;;;;12.39;91.96;102233.78;5040863;28;20057;-62
2021/04/01 09:26:14;;;;;;;9.93;2.88;;;;;;;12.22;94.58;102237.75;5038493;28;20172;-62
2021/04/01 09:28:43;;;;;;;9.50;2.70;;;;;;;12.46;95.85;102233.38;5039827;28;20107;-67
2021/04/01 09:31:11;;;;;;;8.48;3.00;;;;;;;12.62;93.74;102236.63;5040439;28;20054;-62
2021/04/01 09:33:39;;;;;;;7.50;2.70;;;;;;;12.78;94.79;102249.84;5041927;28;20049;-62
2021/04/01 09:36:07;;;;;;;9.57;2.88;;;;;;;12.79;94.81;102243.44;5038798;28;20053;-61
2021/04/01 09:38:38;;;;;;;9.10;2.50;;;;;;;12.97;93.38;102244.75;5038951;28;20049;-63
2021/04/01 09:41:05;;;;;;;12.23;2.50;;;;;;;12.94;94.41;102250.38;5038740;28;20073;-68
2021/04/01 09:43:31;;;;;;;9.05;2.35;;;;;;;12.97;94.81;102260.97;5053250;28;20040;-64
2021/04/01 09:46:09;;;;;;;8.18;2.53;;;;;;;12.75;91.70;102256.34;5060423;28;20068;-62
2021/04/01 09:48:40;;;;;;;11.07;2.95;;;;;;;12.69;94.25;102262.22;5051108;28;20056;-63
2021/04/01 09:51:17;;;;;;;9.07;2.67;;;;;;;12.91;96.90;102256.03;5060160;28;20056;-62
2021/04/01 09:53:50;;;;;;;8.15;2.45;;;;;;;12.93;93.73;102261.31;5061498;28;20044;-62
2021/04/01 09:56:22;;;;;;;10.60;2.70;;;;;;;13.12;96.57;102258.91;5056061;28;20132;-61
2021/04/01 09:58:50;;;;;;;12.88;3.15;;;;;;;12.97;93.39;102260.97;5059976;28;20122;-62
2021/04/01 10:01:30;;;;;;;9.20;2.03;;;;;;;13.10;94.43;102273.53;5062305;28;20044;-66
2021/04/01 10:04:04;;;;;;;11.93;2.50;;;;;;;13.03;94.66;102274.97;5060809;28;20512;-62
2021/04/01 10:06:40;;;;;;;16.67;2.55;;;;;;;13.08;97.24;102270.09;5060592;28;20056;-63
2021/04/01 10:09:13;;;;;;;12.40;3.38;;;;;;;12.92;98.41;102265.00;5061014;28;20404;-63
2021/04/01 10:11:46;;;;;;;12.70;3.35;;;;;;;12.95;99.70;102265.59;5061422;28;20111;-66
2021/04/01 10:14:14;;;;;;;17.13;3.70;;;;;;;12.93;98.92;102275.69;5060855;28;20079;-63
2021/04/01 10:16:58;;;;;;;12.82;2.90;;;;;;;13.08;97.54;102270.09;5053909;28;20059;-63
2021/04/01 10:19:29;;;;;;;10.70;3.03;;;;;;;13.39;97.63;102270.44;5060156;28;20390;-68
2021/04/01 10:21:55;;;;;;;14.48;3.20;;;;;;;13.59;98.42;102274.28;5059154;28;20049;-62
2021/04/01 10:24:28;;;;;;;11.43;3.20;;;;;;;13.42;96.19;102275.63;5058865;28;20049;-61
2021/04/01 10:27:03;;;;;;;18.52;3.78;;;;;;;13.30;99.06;102272.84;5061118;28;20498;-62
2021/04/01 10:29:39;;;;;;;17.48;3.38;;;;;;;13.55;96.79;102284.50;5060760;28;20474;-67
2021/04/01 10:32:07;;;;;;;11.90;3.17;;;;;;;13.33;100.00;102283.41;5060856;28;20052;-62
2021/04/01 10:34:35;;;;;;;20.10;3.88;;;;;;;13.30;99.99;102289.06;5061856;28;20045;-62
2021/04/01 10:37:06;;;;;;;13.93;3.67;;;;;;;13.29;98.56;102271.16;5057592;28;20048;-63
2021/04/01 10:39:36;;;;;;;12.27;3.47;;;;;;;13.43;98.96;102278.19;5060164;28;20052;-61
2021/04/01 10:42:06;;;;;;;11.50;3.20;;;;;;;13.42;100.00;102273.75;5058514;28;20067;-67
2021/04/01 10:44:33;;;;;;;13.65;3.20;;;;;;;13.62;94.19;102279.47;5059765;28;20036;-62
2021/04/01 10:47:00;;;;;;;11.57;3.20;;;;;;;13.60;94.59;102282.31;5059092;28;20513;-62
2021/04/01 10:49:29;;;;;;;13.38;4.03;;;;;;;13.43;96.88;102288.16;5059221;28;20040;-63
2021/04/01 10:51:57;;;;;;;12.82;4.25;;;;;;;13.52;99.24;102292.84;5058864;28;20053;-62
2021/04/01 10:54:24;;;;;;;11.57;3.67;;;;;;;13.69;95.57;102283.38;5057659;28;20338;-66
2021/04/01 10:56:54;;;;;;;14.25;3.30;;;;;;;14.10;95.32;102289.19;5058098;28;20052;-63
2021/04/01 10:59:38;;;;;;;12.13;3.00;;;;;;;13.76;95.85;102300.00;5057647;28;20056;-62
2021/04/01 11:02:11;;;;;;;14.98;3.22;;;;;;;13.71;95.37;102296.81;5057921;28;20456;-64
2021/04/01 11:04:40;;;;;;;9.18;3.15;;;;;;;13.78;94.95;102292.63;5060187;28;20114;-64
2021/04/01 11:07:07;;;;;;;11.23;2.80;;;;;;;13.69;93.23;102305.03;5059341;28;20505;-62
2021/04/01 11:09:34;;;;;;;13.75;2.72;;;;;;;13.64;92.48;102300.00;5059892;28;20565;-62
2021/04/01 11:14:48;;;;;;;10.13;2.78;;;;;;;13.81;94.26;102298.66;5060087;28;20055;-65
2021/04/01 11:17:17;;;;;;;9.18;2.47;;;;;;;13.76;94.88;102294.59;5058199;28;20090;-62
2021/04/01 11:19:45;;;;;;;6.65;2.38;;;;;;;13.99;92.06;102304.44;5058383;28;20049;-62
2021/04/01 11:22:12;;;;;;;9.60;2.70;;;;;;;13.83;89.50;102307.50;5057879;28;20048;-63
2021/04/01 11:24:39;;;;;;;12.93;2.75;;;;;;;13.99;93.09;102312.56;5060154;28;20057;-66
2021/04/01 11:27:07;;;;;;;12.52;2.67;;;;;;;13.71;95.15;102310.34;5059185;28;20049;-65
2021/04/01 11:29:33;;;;;;;10.45;2.95;;;;;;;13.84;94.53;102311.94;5058246;28;20098;-62
2021/04/01 11:32:16;;;;;;;7.47;3.00;;;;;;;13.67;96.85;102312.41;5059002;28;20505;-63
2021/04/01 11:34:44;;;;;;;14.07;3.03;;;;;;;13.47;94.88;102320.25;5055942;28;20045;-63
2021/04/01 11:37:11;;;;;;;9.68;2.80;;;;;;;13.27;96.26;102327.16;5056113;28;20541;-66
2021/04/01 11:39:39;;;;;;;9.82;3.28;;;;;;;13.40;96.15;102328.97;5059172;28;20524;-63
2021/04/01 11:42:08;;;;;;;10.57;2.70;;;;;;;13.44;96.80;102334.03;5060086;28;20053;-63
2021/04/01 11:44:36;;;;;;;11.50;3.00;;;;;;;13.60;95.85;102333.69;5060258;28;20045;-62
2021/04/01 11:47:14;;;;;;;11.52;2.80;;;;;;;13.77;92.39;102326.09;5059845;28;20049;-62
2021/04/01 11:49:41;;;;;;;9.77;2.33;;;;;;;13.56;89.30;102337.63;5059342;28;20049;-65
2021/04/01 11:52:09;;;;;;;8.23;2.42;;;;;;;13.39;94.54;102329.94;5058149;28;20047;-62
2021/04/01 11:54:36;;;;;;;12.20;3.00;;;;;;;13.82;90.28;102327.47;5057639;28;20044;-61
2021/04/01 11:57:02;;;;;;;14.93;2.83;;;;;;;13.70;89.04;102330.25;5058369;28;20432;-62
2021/04/01 11:59:30;;;;;;;12.20;3.10;;;;;;;13.61;91.55;102329.13;5058227;28;20045;-63
2021/04/01 12:02:01;;;;;;;8.95;2.80;;;;;;;13.58;89.77;102326.69;5059666;28;20576;-66
2021/04/01 12:04:30;;;;;;;8.75;2.60;;;;;;;13.65;90.57;102327.94;5060082;28;20044;-61
2021/04/01 12:06:57;;;;;;;;;;;;;;;13.55;87.66;102330.47;5060091;28;20056;-62